sensor_id;sensor_type;location;lat;lon;timestamp;pressure;altitude;pressure_sealevel;temperature;humidity
51526;BME280;37611;51.794;21.590;2023-05-23T00:02:30;99970.27;;;12.46;78.20
51526;BME280;37611;51.794;21.590;2023-05-23T00:06:32;99967.97;;;12.40;78.31
51526;BME280;37611;51.794;21.590;2023-05-23T00:10:34;99966.41;;;12.33;78.66
51526;BME280;37611;51.794;21.590;2023-05-23T00:14:36;99961.02;;;12.28;78.79
51526;BME280;37611;51.794;21.590;2023-05-23T00:18:40;99961.73;;;12.22;78.20
51526;BME280;37611;51.794;21.590;2023-05-23T00:22:43;99960.32;;;12.16;78.75
51526;BME280;37611;51.794;21.590;2023-05-23T00:26:48;99960.11;;;12.12;79.32
51526;BME280;37611;51.794;21.590;2023-05-23T00:30:50;99955.54;;;12.08;79.36
51526;BME280;37611;51.794;21.590;2023-05-23T00:34:52;99954.91;;;12.05;79.20
51526;BME280;37611;51.794;21.590;2023-05-23T00:38:54;99953.72;;;12.01;79.69
51526;BME280;37611;51.794;21.590;2023-05-23T00:42:56;99945.88;;;11.98;79.78
51526;BME280;37611;51.794;21.590;2023-05-23T00:46:58;99948.41;;;11.96;80.29
51526;BME280;37611;51.794;21.590;2023-05-23T00:50:59;99948.41;;;11.94;80.52
51526;BME280;37611;51.794;21.590;2023-05-23T00:55:02;99955.84;;;11.92;80.30
51526;BME280;37611;51.794;21.590;2023-05-23T00:59:04;99954.16;;;11.90;80.26
51526;BME280;37611;51.794;21.590;2023-05-23T01:03:07;99954.48;;;11.89;80.81
51526;BME280;37611;51.794;21.590;2023-05-23T01:07:09;99950.08;;;11.87;80.85
51526;BME280;37611;51.794;21.590;2023-05-23T01:11:22;99952.98;;;11.86;81.16
51526;BME280;37611;51.794;21.590;2023-05-23T01:19:54;99956.51;;;11.79;81.59
51526;BME280;37611;51.794;21.590;2023-05-23T01:24:12;99960.48;;;11.78;81.62
51526;BME280;37611;51.794;21.590;2023-05-23T01:28:22;99956.34;;;11.77;82.19
51526;BME280;37611;51.794;21.590;2023-05-23T01:32:29;99953.73;;;11.75;82.34
51526;BME280;37611;51.794;21.590;2023-05-23T01:36:33;99951.42;;;11.72;82.29
51526;BME280;37611;51.794;21.590;2023-05-23T01:40:38;99949.20;;;11.70;82.47
51526;BME280;37611;51.794;21.590;2023-05-23T01:44:40;99948.13;;;11.68;82.56
51526;BME280;37611;51.794;21.590;2023-05-23T01:48:43;99944.64;;;11.58;82.25
51526;BME280;37611;51.794;21.590;2023-05-23T01:52:46;99942.27;;;11.46;83.11
51526;BME280;37611;51.794;21.590;2023-05-23T01:56:48;99940.88;;;11.41;83.62
51526;BME280;37611;51.794;21.590;2023-05-23T02:00:51;99946.65;;;11.39;83.67
51526;BME280;37611;51.794;21.590;2023-05-23T02:04:52;99944.62;;;11.35;83.65
51526;BME280;37611;51.794;21.590;2023-05-23T02:08:54;99940.71;;;11.28;83.39
51526;BME280;37611;51.794;21.590;2023-05-23T02:12:56;99940.90;;;11.23;83.81
51526;BME280;37611;51.794;21.590;2023-05-23T02:16:58;99934.54;;;11.20;83.96
51526;BME280;37611;51.794;21.590;2023-05-23T02:21:00;99928.44;;;11.17;83.91
51526;BME280;37611;51.794;21.590;2023-05-23T02:25:03;99925.80;;;11.15;84.13
51526;BME280;37611;51.794;21.590;2023-05-23T02:29:04;99919.10;;;11.14;84.14
51526;BME280;37611;51.794;21.590;2023-05-23T02:33:07;99916.73;;;11.13;84.35
51526;BME280;37611;51.794;21.590;2023-05-23T02:37:08;99913.28;;;11.12;84.65
51526;BME280;37611;51.794;21.590;2023-05-23T02:41:10;99915.25;;;11.12;85.07
51526;BME280;37611;51.794;21.590;2023-05-23T02:45:12;99919.00;;;11.13;84.99
51526;BME280;37611;51.794;21.590;2023-05-23T02:49:13;99917.75;;;11.13;84.82
51526;BME280;37611;51.794;21.590;2023-05-23T02:53:15;99915.95;;;11.12;84.95
51526;BME280;37611;51.794;21.590;2023-05-23T02:57:17;99909.33;;;11.12;84.90
51526;BME280;37611;51.794;21.590;2023-05-23T03:01:19;99905.34;;;11.11;85.05
51526;BME280;37611;51.794;21.590;2023-05-23T03:05:21;99907.01;;;11.14;84.97
51526;BME280;37611;51.794;21.590;2023-05-23T03:09:22;99906.90;;;11.18;85.30
51526;BME280;37611;51.794;21.590;2023-05-23T03:13:24;99903.36;;;11.25;85.45
51526;BME280;37611;51.794;21.590;2023-05-23T03:17:26;99897.55;;;11.34;85.21
51526;BME280;37611;51.794;21.590;2023-05-23T03:21:28;99894.06;;;11.42;85.18
51526;BME280;37611;51.794;21.590;2023-05-23T03:25:30;99895.02;;;11.55;85.00
51526;BME280;37611;51.794;21.590;2023-05-23T03:29:31;99898.30;;;11.70;85.07
51526;BME280;37611;51.794;21.590;2023-05-23T03:33:33;99896.63;;;11.86;84.56
51526;BME280;37611;51.794;21.590;2023-05-23T03:37:35;99893.70;;;12.04;84.36
51526;BME280;37611;51.794;21.590;2023-05-23T03:41:37;99897.52;;;12.24;83.79
51526;BME280;37611;51.794;21.590;2023-05-23T03:45:38;99895.36;;;12.46;83.33
51526;BME280;37611;51.794;21.590;2023-05-23T03:49:40;99892.29;;;12.69;82.70
51526;BME280;37611;51.794;21.590;2023-05-23T03:53:42;99902.71;;;12.97;82.06
51526;BME280;37611;51.794;21.590;2023-05-23T03:57:44;99897.55;;;13.24;81.56
51526;BME280;37611;51.794;21.590;2023-05-23T04:01:45;99896.91;;;13.49;81.02
51526;BME280;37611;51.794;21.590;2023-05-23T04:05:47;99895.59;;;13.68;79.70
51526;BME280;37611;51.794;21.590;2023-05-23T04:09:49;99892.65;;;13.93;79.10
51526;BME280;37611;51.794;21.590;2023-05-23T04:13:51;99890.88;;;14.40;78.07
51526;BME280;37611;51.794;21.590;2023-05-23T04:17:53;99890.45;;;14.81;77.16
51526;BME280;37611;51.794;21.590;2023-05-23T04:21:56;99890.55;;;15.23;76.32
51526;BME280;37611;51.794;21.590;2023-05-23T04:25:58;99893.88;;;15.59;75.26
51526;BME280;37611;51.794;21.590;2023-05-23T04:30:00;99893.00;;;15.90;73.77
51526;BME280;37611;51.794;21.590;2023-05-23T04:34:02;99890.06;;;16.13;72.55
51526;BME280;37611;51.794;21.590;2023-05-23T04:38:04;99891.11;;;16.38;71.90
51526;BME280;37611;51.794;21.590;2023-05-23T04:42:06;99885.09;;;16.62;69.76
51526;BME280;37611;51.794;21.590;2023-05-23T04:46:08;99888.94;;;16.95;69.12
51526;BME280;37611;51.794;21.590;2023-05-23T04:50:10;99884.92;;;17.27;68.51
51526;BME280;37611;51.794;21.590;2023-05-23T04:54:12;99878.09;;;17.71;66.33
51526;BME280;37611;51.794;21.590;2023-05-23T04:58:14;99873.64;;;18.26;66.71
51526;BME280;37611;51.794;21.590;2023-05-23T05:02:15;99872.27;;;18.81;65.36
51526;BME280;37611;51.794;21.590;2023-05-23T05:06:17;99873.11;;;19.08;63.01
51526;BME280;37611;51.794;21.590;2023-05-23T05:10:19;99871.15;;;19.33;62.13
51526;BME280;37611;51.794;21.590;2023-05-23T05:14:21;99875.40;;;19.55;61.15
51526;BME280;37611;51.794;21.590;2023-05-23T05:18:25;99872.27;;;19.81;60.35
51526;BME280;37611;51.794;21.590;2023-05-23T05:22:27;99870.16;;;19.95;60.07
51526;BME280;37611;51.794;21.590;2023-05-23T05:26:29;99871.71;;;20.00;59.86
51526;BME280;37611;51.794;21.590;2023-05-23T05:30:32;99866.30;;;20.06;59.46
51526;BME280;37611;51.794;21.590;2023-05-23T05:34:35;99863.83;;;20.08;58.79
51526;BME280;37611;51.794;21.590;2023-05-23T05:38:38;99858.98;;;20.16;57.98
51526;BME280;37611;51.794;21.590;2023-05-23T05:42:39;99858.38;;;20.12;58.10
51526;BME280;37611;51.794;21.590;2023-05-23T05:46:41;99856.77;;;20.12;57.59
51526;BME280;37611;51.794;21.590;2023-05-23T05:50:43;99860.30;;;20.17;58.02
51526;BME280;37611;51.794;21.590;2023-05-23T05:54:45;99863.00;;;20.28;56.58
51526;BME280;37611;51.794;21.590;2023-05-23T05:58:47;99860.64;;;20.21;55.37
51526;BME280;37611;51.794;21.590;2023-05-23T06:02:49;99860.60;;;20.31;55.45
51526;BME280;37611;51.794;21.590;2023-05-23T06:06:52;99856.56;;;20.52;54.77
51526;BME280;37611;51.794;21.590;2023-05-23T06:10:53;99855.07;;;20.62;54.87
51526;BME280;37611;51.794;21.590;2023-05-23T06:14:57;99856.98;;;20.78;53.09
51526;BME280;37611;51.794;21.590;2023-05-23T06:18:58;99854.27;;;20.83;51.24
51526;BME280;37611;51.794;21.590;2023-05-23T06:23:00;99848.02;;;20.87;51.05
51526;BME280;37611;51.794;21.590;2023-05-23T06:27:04;99847.17;;;20.97;50.87
51526;BME280;37611;51.794;21.590;2023-05-23T06:31:06;99843.71;;;21.07;50.13
51526;BME280;37611;51.794;21.590;2023-05-23T06:35:10;99836.97;;;21.11;49.19
51526;BME280;37611;51.794;21.590;2023-05-23T06:39:12;99834.08;;;21.12;47.87
51526;BME280;37611;51.794;21.590;2023-05-23T06:43:14;99829.78;;;21.17;47.25
51526;BME280;37611;51.794;21.590;2023-05-23T06:47:15;99829.52;;;21.21;45.80
51526;BME280;37611;51.794;21.590;2023-05-23T06:51:17;99829.00;;;21.20;45.24
51526;BME280;37611;51.794;21.590;2023-05-23T06:55:19;99826.33;;;21.18;45.48
51526;BME280;37611;51.794;21.590;2023-05-23T06:59:21;99823.54;;;21.23;44.96
51526;BME280;37611;51.794;21.590;2023-05-23T07:03:22;99822.63;;;21.35;44.55
51526;BME280;37611;51.794;21.590;2023-05-23T07:07:24;99820.66;;;21.41;44.38
51526;BME280;37611;51.794;21.590;2023-05-23T07:11:26;99816.13;;;21.56;43.95
51526;BME280;37611;51.794;21.590;2023-05-23T07:15:27;99816.22;;;21.68;43.63
51526;BME280;37611;51.794;21.590;2023-05-23T07:19:30;99809.34;;;21.80;43.55
51526;BME280;37611;51.794;21.590;2023-05-23T07:23:32;99802.89;;;21.87;42.58
51526;BME280;37611;51.794;21.590;2023-05-23T07:27:37;99800.56;;;21.93;43.24
51526;BME280;37611;51.794;21.590;2023-05-23T07:31:39;99800.95;;;22.07;42.76
51526;BME280;37611;51.794;21.590;2023-05-23T07:35:43;99800.30;;;22.15;42.01
51526;BME280;37611;51.794;21.590;2023-05-23T07:39:44;99797.48;;;22.13;40.88
51526;BME280;37611;51.794;21.590;2023-05-23T07:43:47;99795.74;;;22.10;40.36
51526;BME280;37611;51.794;21.590;2023-05-23T07:47:48;99792.60;;;22.11;40.78
51526;BME280;37611;51.794;21.590;2023-05-23T07:51:50;99793.48;;;22.33;41.62
51526;BME280;37611;51.794;21.590;2023-05-23T07:55:52;99791.07;;;22.49;40.95
51526;BME280;37611;51.794;21.590;2023-05-23T07:59:54;99789.75;;;22.58;40.57
51526;BME280;37611;51.794;21.590;2023-05-23T08:03:56;99788.14;;;22.71;40.13
51526;BME280;37611;51.794;21.590;2023-05-23T08:07:58;99784.45;;;22.84;39.47
51526;BME280;37611;51.794;21.590;2023-05-23T08:12:00;99786.41;;;22.91;38.41
51526;BME280;37611;51.794;21.590;2023-05-23T08:16:01;99780.04;;;22.96;38.08
51526;BME280;37611;51.794;21.590;2023-05-23T08:20:03;99773.52;;;23.02;37.81
51526;BME280;37611;51.794;21.590;2023-05-23T08:24:05;99779.01;;;23.09;37.89
51526;BME280;37611;51.794;21.590;2023-05-23T08:28:07;99781.13;;;23.10;36.35
51526;BME280;37611;51.794;21.590;2023-05-23T08:32:09;99784.02;;;23.02;35.72
51526;BME280;37611;51.794;21.590;2023-05-23T08:36:11;99777.15;;;23.02;36.07
51526;BME280;37611;51.794;21.590;2023-05-23T08:40:17;99773.25;;;23.16;36.29
51526;BME280;37611;51.794;21.590;2023-05-23T08:44:20;99774.54;;;23.23;34.67
51526;BME280;37611;51.794;21.590;2023-05-23T08:48:22;99772.23;;;23.23;34.51
51526;BME280;37611;51.794;21.590;2023-05-23T08:52:28;99769.89;;;23.15;34.45
51526;BME280;37611;51.794;21.590;2023-05-23T08:56:32;99767.56;;;23.14;34.74
51526;BME280;37611;51.794;21.590;2023-05-23T09:00:35;99762.46;;;23.15;34.09
51526;BME280;37611;51.794;21.590;2023-05-23T09:04:37;99758.48;;;23.27;33.73
51526;BME280;37611;51.794;21.590;2023-05-23T09:08:39;99755.27;;;23.27;33.78
51526;BME280;37611;51.794;21.590;2023-05-23T09:12:40;99756.65;;;23.39;35.03
51526;BME280;37611;51.794;21.590;2023-05-23T09:16:45;99749.28;;;23.51;35.00
51526;BME280;37611;51.794;21.590;2023-05-23T09:20:49;99746.91;;;23.46;33.70
51526;BME280;37611;51.794;21.590;2023-05-23T09:24:53;99759.84;;;23.34;32.73
51526;BME280;37611;51.794;21.590;2023-05-23T09:28:58;99747.89;;;23.25;32.73
51526;BME280;37611;51.794;21.590;2023-05-23T09:33:00;99740.70;;;23.24;33.17
51526;BME280;37611;51.794;21.590;2023-05-23T09:37:02;99751.13;;;23.30;32.59
51526;BME280;37611;51.794;21.590;2023-05-23T09:41:04;99749.86;;;23.15;31.91
51526;BME280;37611;51.794;21.590;2023-05-23T09:45:07;99741.73;;;23.13;32.53
51526;BME280;37611;51.794;21.590;2023-05-23T09:49:15;99741.64;;;23.23;32.71
51526;BME280;37611;51.794;21.590;2023-05-23T09:53:22;99734.71;;;23.17;32.55
51526;BME280;37611;51.794;21.590;2023-05-23T09:57:24;99730.31;;;23.19;33.61
51526;BME280;37611;51.794;21.590;2023-05-23T10:01:29;99735.42;;;23.24;33.21
51526;BME280;37611;51.794;21.590;2023-05-23T10:05:55;99732.77;;;23.18;33.22
51526;BME280;37611;51.794;21.590;2023-05-23T10:10:02;99727.59;;;23.26;33.83
51526;BME280;37611;51.794;21.590;2023-05-23T10:14:09;99731.23;;;23.48;33.74
51526;BME280;37611;51.794;21.590;2023-05-23T10:18:15;99731.04;;;23.56;33.06
51526;BME280;37611;51.794;21.590;2023-05-23T10:22:19;99731.33;;;23.51;32.90
51526;BME280;37611;51.794;21.590;2023-05-23T10:26:22;99720.73;;;23.42;33.44
51526;BME280;37611;51.794;21.590;2023-05-23T10:30:25;99714.43;;;23.47;34.07
51526;BME280;37611;51.794;21.590;2023-05-23T10:34:41;99717.23;;;23.57;34.56
51526;BME280;37611;51.794;21.590;2023-05-23T10:38:59;99718.15;;;23.64;34.64
51526;BME280;37611;51.794;21.590;2023-05-23T10:47:10;99715.45;;;23.63;33.31
51526;BME280;37611;51.794;21.590;2023-05-23T10:51:14;99707.67;;;23.69;33.49
51526;BME280;37611;51.794;21.590;2023-05-23T10:55:16;99704.39;;;23.91;33.65
51526;BME280;37611;51.794;21.590;2023-05-23T10:59:20;99708.70;;;24.11;32.11
51526;BME280;37611;51.794;21.590;2023-05-23T11:07:46;99700.64;;;23.86;32.21
51526;BME280;37611;51.794;21.590;2023-05-23T11:12:05;99704.55;;;23.94;31.89
51526;BME280;37611;51.794;21.590;2023-05-23T11:16:23;99694.95;;;24.03;31.55
51526;BME280;37611;51.794;21.590;2023-05-23T11:20:26;99691.86;;;24.16;31.63
51526;BME280;37611;51.794;21.590;2023-05-23T11:24:51;99680.52;;;24.36;31.42
51526;BME280;37611;51.794;21.590;2023-05-23T11:28:58;99682.13;;;24.48;30.82
51526;BME280;37611;51.794;21.590;2023-05-23T11:33:05;99673.70;;;24.49;30.92
51526;BME280;37611;51.794;21.590;2023-05-23T11:37:09;99669.51;;;24.40;30.45
51526;BME280;37611;51.794;21.590;2023-05-23T11:41:12;99671.14;;;24.26;30.75
51526;BME280;37611;51.794;21.590;2023-05-23T11:45:14;99671.42;;;24.26;31.50
51526;BME280;37611;51.794;21.590;2023-05-23T11:49:15;99668.98;;;24.27;30.94
51526;BME280;37611;51.794;21.590;2023-05-23T11:53:19;99666.64;;;24.12;30.99
51526;BME280;37611;51.794;21.590;2023-05-23T11:57:22;99666.41;;;24.07;31.13
51526;BME280;37611;51.794;21.590;2023-05-23T12:01:28;99658.19;;;24.14;31.30
51526;BME280;37611;51.794;21.590;2023-05-23T12:05:31;99656.45;;;24.31;31.11
51526;BME280;37611;51.794;21.590;2023-05-23T12:09:43;99650.41;;;24.34;30.72
51526;BME280;37611;51.794;21.590;2023-05-23T12:13:45;99649.95;;;24.38;30.68
51526;BME280;37611;51.794;21.590;2023-05-23T12:17:47;99650.52;;;24.41;29.95
51526;BME280;37611;51.794;21.590;2023-05-23T12:21:49;99649.33;;;24.39;30.09
51526;BME280;37611;51.794;21.590;2023-05-23T12:25:52;99644.80;;;24.47;30.07
51526;BME280;37611;51.794;21.590;2023-05-23T12:30:14;99634.45;;;24.48;30.06
51526;BME280;37611;51.794;21.590;2023-05-23T12:34:20;99634.13;;;24.40;29.95
51526;BME280;37611;51.794;21.590;2023-05-23T12:38:22;99638.90;;;24.23;30.19
51526;BME280;37611;51.794;21.590;2023-05-23T12:42:23;99636.84;;;24.03;30.23
51526;BME280;37611;51.794;21.590;2023-05-23T12:46:26;99625.05;;;23.96;30.73
51526;BME280;37611;51.794;21.590;2023-05-23T12:50:28;99623.20;;;23.94;31.13
51526;BME280;37611;51.794;21.590;2023-05-23T12:54:31;99622.07;;;24.01;31.47
51526;BME280;37611;51.794;21.590;2023-05-23T12:58:33;99618.59;;;24.10;31.86
51526;BME280;37611;51.794;21.590;2023-05-23T13:02:35;99616.66;;;24.20;32.14
51526;BME280;37611;51.794;21.590;2023-05-23T13:06:37;99613.17;;;24.25;32.11
51526;BME280;37611;51.794;21.590;2023-05-23T13:10:38;99609.89;;;24.25;32.08
51526;BME280;37611;51.794;21.590;2023-05-23T13:14:40;99605.10;;;24.19;32.04
51526;BME280;37611;51.794;21.590;2023-05-23T13:18:42;99597.48;;;24.14;32.76
51526;BME280;37611;51.794;21.590;2023-05-23T13:22:44;99591.79;;;24.18;32.55
51526;BME280;37611;51.794;21.590;2023-05-23T13:26:45;99585.25;;;24.21;33.23
51526;BME280;37611;51.794;21.590;2023-05-23T13:30:47;99584.73;;;24.36;33.32
51526;BME280;37611;51.794;21.590;2023-05-23T13:34:49;99584.24;;;24.39;33.06
51526;BME280;37611;51.794;21.590;2023-05-23T13:38:50;99582.83;;;24.38;32.97
51526;BME280;37611;51.794;21.590;2023-05-23T13:42:52;99580.45;;;24.41;33.31
51526;BME280;37611;51.794;21.590;2023-05-23T13:46:54;99581.19;;;24.36;32.91
51526;BME280;37611;51.794;21.590;2023-05-23T13:50:56;99572.37;;;24.31;33.36
51526;BME280;37611;51.794;21.590;2023-05-23T13:54:57;99561.45;;;24.40;33.58
51526;BME280;37611;51.794;21.590;2023-05-23T13:59:00;99559.44;;;24.44;33.35
51526;BME280;37611;51.794;21.590;2023-05-23T14:03:02;99558.05;;;24.40;33.03
51526;BME280;37611;51.794;21.590;2023-05-23T14:07:04;99559.25;;;24.33;33.02
51526;BME280;37611;51.794;21.590;2023-05-23T14:11:06;99559.45;;;24.27;32.95
51526;BME280;37611;51.794;21.590;2023-05-23T14:15:08;99557.79;;;24.27;33.31
51526;BME280;37611;51.794;21.590;2023-05-23T14:19:10;99551.13;;;24.32;32.89
51526;BME280;37611;51.794;21.590;2023-05-23T14:23:12;99552.27;;;24.33;32.63
51526;BME280;37611;51.794;21.590;2023-05-23T14:27:13;99559.42;;;24.30;32.72
51526;BME280;37611;51.794;21.590;2023-05-23T14:31:15;99560.42;;;24.21;32.69
51526;BME280;37611;51.794;21.590;2023-05-23T14:35:17;99553.45;;;24.17;32.86
51526;BME280;37611;51.794;21.590;2023-05-23T14:39:19;99554.23;;;24.15;32.81
51526;BME280;37611;51.794;21.590;2023-05-23T14:43:21;99550.11;;;24.07;32.43
51526;BME280;37611;51.794;21.590;2023-05-23T14:47:22;99545.40;;;23.97;32.81
51526;BME280;37611;51.794;21.590;2023-05-23T14:51:24;99543.47;;;23.93;32.95
51526;BME280;37611;51.794;21.590;2023-05-23T14:55:26;99545.81;;;23.83;32.77
51526;BME280;37611;51.794;21.590;2023-05-23T14:59:28;99541.30;;;23.73;33.36
51526;BME280;37611;51.794;21.590;2023-05-23T15:03:29;99543.85;;;23.71;33.62
51526;BME280;37611;51.794;21.590;2023-05-23T15:07:32;99541.27;;;23.67;33.93
51526;BME280;37611;51.794;21.590;2023-05-23T15:11:34;99543.64;;;23.64;33.84
51526;BME280;37611;51.794;21.590;2023-05-23T15:15:37;99543.73;;;23.59;34.11
51526;BME280;37611;51.794;21.590;2023-05-23T15:19:40;99537.99;;;23.60;34.24
51526;BME280;37611;51.794;21.590;2023-05-23T15:23:43;99535.00;;;23.60;34.84
51526;BME280;37611;51.794;21.590;2023-05-23T15:27:44;99541.33;;;23.60;34.81
51526;BME280;37611;51.794;21.590;2023-05-23T15:31:46;99538.61;;;23.58;34.65
51526;BME280;37611;51.794;21.590;2023-05-23T15:35:48;99539.31;;;23.59;34.44
51526;BME280;37611;51.794;21.590;2023-05-23T15:39:49;99540.44;;;23.62;34.53
51526;BME280;37611;51.794;21.590;2023-05-23T15:43:51;99540.42;;;23.64;34.50
51526;BME280;37611;51.794;21.590;2023-05-23T15:47:53;99535.98;;;23.68;34.48
51526;BME280;37611;51.794;21.590;2023-05-23T15:51:55;99532.46;;;23.66;34.31
51526;BME280;37611;51.794;21.590;2023-05-23T15:55:56;99532.27;;;23.62;34.62
51526;BME280;37611;51.794;21.590;2023-05-23T15:59:58;99526.83;;;23.59;34.97
51526;BME280;37611;51.794;21.590;2023-05-23T16:04:00;99527.51;;;23.54;34.93
51526;BME280;37611;51.794;21.590;2023-05-23T16:08:01;99524.31;;;23.50;35.07
51526;BME280;37611;51.794;21.590;2023-05-23T16:12:03;99526.79;;;23.47;35.08
51526;BME280;37611;51.794;21.590;2023-05-23T16:16:05;99521.66;;;23.41;34.85
51526;BME280;37611;51.794;21.590;2023-05-23T16:20:07;99518.57;;;23.34;34.79
51526;BME280;37611;51.794;21.590;2023-05-23T16:24:09;99515.69;;;23.27;35.56
51526;BME280;37611;51.794;21.590;2023-05-23T16:28:12;99516.90;;;23.22;36.33
51526;BME280;37611;51.794;21.590;2023-05-23T16:32:14;99518.40;;;23.18;36.51
51526;BME280;37611;51.794;21.590;2023-05-23T16:36:17;99513.41;;;23.14;36.64
51526;BME280;37611;51.794;21.590;2023-05-23T16:40:19;99514.52;;;23.06;36.86
51526;BME280;37611;51.794;21.590;2023-05-23T16:44:21;99517.55;;;23.00;36.93
51526;BME280;37611;51.794;21.590;2023-05-23T16:48:22;99516.70;;;22.94;37.20
51526;BME280;37611;51.794;21.590;2023-05-23T16:52:24;99511.85;;;22.90;37.73
51526;BME280;37611;51.794;21.590;2023-05-23T16:56:26;99514.40;;;22.88;37.99
51526;BME280;37611;51.794;21.590;2023-05-23T17:00:28;99514.61;;;22.85;38.29
51526;BME280;37611;51.794;21.590;2023-05-23T17:04:29;99511.84;;;22.82;38.57
51526;BME280;37611;51.794;21.590;2023-05-23T17:08:31;99511.27;;;22.80;38.82
51526;BME280;37611;51.794;21.590;2023-05-23T17:12:33;99513.23;;;22.76;39.15
51526;BME280;37611;51.794;21.590;2023-05-23T17:16:34;99510.95;;;22.69;39.56
51526;BME280;37611;51.794;21.590;2023-05-23T17:20:36;99516.38;;;22.63;39.75
51526;BME280;37611;51.794;21.590;2023-05-23T17:24:38;99518.05;;;22.55;40.21
51526;BME280;37611;51.794;21.590;2023-05-23T17:28:40;99516.92;;;22.46;40.52
51526;BME280;37611;51.794;21.590;2023-05-23T17:32:43;99512.11;;;22.36;41.03
51526;BME280;37611;51.794;21.590;2023-05-23T17:36:45;99514.81;;;22.26;41.42
51526;BME280;37611;51.794;21.590;2023-05-23T17:40:47;99514.59;;;22.17;41.88
51526;BME280;37611;51.794;21.590;2023-05-23T17:44:49;99518.96;;;22.06;42.23
51526;BME280;37611;51.794;21.590;2023-05-23T17:48:50;99522.81;;;21.95;42.64
51526;BME280;37611;51.794;21.590;2023-05-23T17:52:54;99520.80;;;21.85;43.03
51526;BME280;37611;51.794;21.590;2023-05-23T17:56:56;99521.04;;;21.75;43.20
51526;BME280;37611;51.794;21.590;2023-05-23T18:00:58;99520.70;;;21.62;43.80
51526;BME280;37611;51.794;21.590;2023-05-23T18:05:00;99518.38;;;21.46;44.37
51526;BME280;37611;51.794;21.590;2023-05-23T18:09:02;99523.19;;;21.29;44.94
51526;BME280;37611;51.794;21.590;2023-05-23T18:13:04;99523.13;;;21.07;45.76
51526;BME280;37611;51.794;21.590;2023-05-23T18:17:06;99527.23;;;20.88;46.31
51526;BME280;37611;51.794;21.590;2023-05-23T18:21:10;99526.34;;;20.69;46.99
51526;BME280;37611;51.794;21.590;2023-05-23T18:25:11;99531.30;;;20.50;47.48
51526;BME280;37611;51.794;21.590;2023-05-23T18:29:19;99534.02;;;20.32;48.19
51526;BME280;37611;51.794;21.590;2023-05-23T18:33:21;99535.38;;;20.16;49.04
51526;BME280;37611;51.794;21.590;2023-05-23T18:37:23;99539.93;;;20.00;49.49
51526;BME280;37611;51.794;21.590;2023-05-23T18:41:25;99547.95;;;19.85;50.08
51526;BME280;37611;51.794;21.590;2023-05-23T18:45:29;99557.64;;;19.70;51.14
51526;BME280;37611;51.794;21.590;2023-05-23T18:49:31;99561.77;;;19.54;51.77
51526;BME280;37611;51.794;21.590;2023-05-23T18:53:33;99564.67;;;19.37;52.62
51526;BME280;37611;51.794;21.590;2023-05-23T18:57:35;99566.07;;;19.16;53.38
51526;BME280;37611;51.794;21.590;2023-05-23T19:01:36;99567.11;;;18.99;53.75
51526;BME280;37611;51.794;21.590;2023-05-23T19:05:38;99564.98;;;18.85;54.23
51526;BME280;37611;51.794;21.590;2023-05-23T19:09:40;99563.46;;;18.70;54.31
51526;BME280;37611;51.794;21.590;2023-05-23T19:13:41;99564.52;;;18.56;54.82
51526;BME280;37611;51.794;21.590;2023-05-23T19:17:43;99562.16;;;18.43;54.86
51526;BME280;37611;51.794;21.590;2023-05-23T19:21:45;99562.63;;;18.30;55.04
51526;BME280;37611;51.794;21.590;2023-05-23T19:25:47;99568.12;;;18.20;54.97
51526;BME280;37611;51.794;21.590;2023-05-23T19:29:49;99570.54;;;18.13;55.30
51526;BME280;37611;51.794;21.590;2023-05-23T19:33:50;99573.34;;;18.07;55.41
51526;BME280;37611;51.794;21.590;2023-05-23T19:37:52;99571.45;;;18.02;55.63
51526;BME280;37611;51.794;21.590;2023-05-23T19:41:54;99572.54;;;17.94;55.90
51526;BME280;37611;51.794;21.590;2023-05-23T19:45:56;99574.04;;;17.86;56.06
51526;BME280;37611;51.794;21.590;2023-05-23T19:49:57;99571.93;;;17.81;56.17
51526;BME280;37611;51.794;21.590;2023-05-23T19:53:59;99574.14;;;17.78;56.59
51526;BME280;37611;51.794;21.590;2023-05-23T19:58:01;99575.21;;;17.75;56.53
51526;BME280;37611;51.794;21.590;2023-05-23T20:02:03;99575.27;;;17.72;56.85
51526;BME280;37611;51.794;21.590;2023-05-23T20:06:05;99577.70;;;17.67;57.05
51526;BME280;37611;51.794;21.590;2023-05-23T20:10:07;99577.70;;;17.64;57.06
51526;BME280;37611;51.794;21.590;2023-05-23T20:14:09;99576.95;;;17.62;57.19
51526;BME280;37611;51.794;21.590;2023-05-23T20:18:11;99570.77;;;17.59;57.46
51526;BME280;37611;51.794;21.590;2023-05-23T20:22:13;99575.64;;;17.59;57.53
51526;BME280;37611;51.794;21.590;2023-05-23T20:26:15;99578.87;;;17.57;57.68
51526;BME280;37611;51.794;21.590;2023-05-23T20:30:17;99578.50;;;17.56;57.79
51526;BME280;37611;51.794;21.590;2023-05-23T20:34:18;99578.47;;;17.55;57.93
51526;BME280;37611;51.794;21.590;2023-05-23T20:38:20;99586.52;;;17.53;58.40
51526;BME280;37611;51.794;21.590;2023-05-23T20:42:22;99584.77;;;17.51;58.64
51526;BME280;37611;51.794;21.590;2023-05-23T20:46:25;99584.04;;;17.47;58.71
51526;BME280;37611;51.794;21.590;2023-05-23T20:50:27;99587.23;;;17.43;58.63
51526;BME280;37611;51.794;21.590;2023-05-23T20:54:28;99592.26;;;17.39;58.57
51526;BME280;37611;51.794;21.590;2023-05-23T20:58:30;99592.92;;;17.36;58.96
51526;BME280;37611;51.794;21.590;2023-05-23T21:02:32;99593.41;;;17.33;59.10
51526;BME280;37611;51.794;21.590;2023-05-23T21:06:33;99594.32;;;17.31;59.24
51526;BME280;37611;51.794;21.590;2023-05-23T21:10:35;99590.97;;;17.28;59.37
51526;BME280;37611;51.794;21.590;2023-05-23T21:14:37;99597.02;;;17.25;59.92
51526;BME280;37611;51.794;21.590;2023-05-23T21:18:39;99593.25;;;17.21;60.19
51526;BME280;37611;51.794;21.590;2023-05-23T21:22:41;99588.15;;;17.19;60.42